Apple Valley, Idaho
Current Conditions -  °F | °C
As of 4:53 PM on Wednesday 22 Oct 2014 (Local Time) from KONO Reporting Station
Broken Clouds Broken Clouds  
Wind Chill: 57°   Ceiling: 11000
Heat Index: 57°   Visibility: 10mi
Dew Point: 43°   Wind: 5mph
Humidity: 59%   Direction: 350°N
Pressure: 30.03"   Gusts: NA
Location:  43.8067°N, 116.922°W
Report Text: KONO 222253Z AUTO 35004KT 10SM BKN110 14/06 A3003 RMK AO2 SLP176 T01390061
Loading
Personal Weather Stations






























Interactive Weather Map
Tropical Storm Tracking
New forecast layout! Learn more

10-Day Weather Forecast

Advertisements
Track Severe Weather on mobile